Time;durP1;ratioP1;P1;durP2;ratioP2;P2;SDS_P1;SDS_P2;PMS_P1;PMS_P2;Temp;Humidity;BMP_temperature;BMP_pressure;BME280_temperature;BME280_humidity;BME280_pressure;Samples;Min_cycle;Max_cycle;Signal;HPM_P1;HPM_P2
2023/03/07 00:01:20;;;;;;;27.77;17.08;;;;;;;;;;8256560;28;20035;-61
2023/03/07 00:05:20;;;;;;;25.25;15.95;;;;;;;;;;8259319;28;20060;-61
2023/03/07 00:09:21;;;;;;;30.33;16.85;;;;;;;;;;8258906;28;20034;-62
2023/03/07 00:13:21;;;;;;;26.40;15.60;;;;;;;;;;8260058;28;20819;-61
2023/03/07 00:17:21;;;;;;;26.40;15.82;;;;;;;;;;8258061;28;20414;-61
2023/03/07 00:21:22;;;;;;;25.85;15.43;;;;;;;;;;8259295;28;20104;-61
2023/03/07 00:25:22;;;;;;;26.65;16.40;;;;;;;;;;8254097;28;20040;-61
2023/03/07 00:29:23;;;;;;;30.88;16.88;;;;;;;;;;8258824;28;20052;-62
2023/03/07 00:33:23;;;;;;;26.52;15.57;;;;;;;;;;8257718;28;20054;-62
2023/03/07 00:37:23;;;;;;;28.77;16.33;;;;;;;;;;8258846;28;20663;-62
2023/03/07 00:41:24;;;;;;;22.92;15.25;;;;;;;;;;8257542;28;20084;-62
2023/03/07 00:45:24;;;;;;;23.55;15.15;;;;;;;;;;8259500;28;20049;-63
2023/03/07 00:49:25;;;;;;;29.05;16.25;;;;;;;;;;8256130;28;20180;-62
2023/03/07 00:53:25;;;;;;;27.45;15.85;;;;;;;;;;8258522;28;20547;-62
2023/03/07 00:57:25;;;;;;;28.50;15.45;;;;;;;;;;8259257;28;20069;-62
2023/03/07 01:01:25;;;;;;;22.35;14.20;;;;;;;;;;8259654;28;20069;-62
2023/03/07 01:05:26;;;;;;;21.48;14.20;;;;;;;;;;8262768;28;20581;-62
2023/03/07 01:09:26;;;;;;;23.45;15.05;;;;;;;;;;8257111;28;20384;-62
2023/03/07 01:13:26;;;;;;;21.30;14.13;;;;;;;;;;8260002;28;20033;-62
2023/03/07 01:17:26;;;;;;;25.40;13.67;;;;;;;;;;8258116;28;20041;-62
2023/03/07 01:21:28;;;;;;;22.50;13.73;;;;;;;;;;8254751;28;20303;-62
2023/03/07 01:25:29;;;;;;;24.25;14.95;;;;;;;;;;8257418;28;20040;-62
2023/03/07 01:29:29;;;;;;;23.27;13.55;;;;;;;;;;8258181;28;20034;-62
2023/03/07 01:33:29;;;;;;;23.08;14.05;;;;;;;;;;8255717;28;20137;-62
2023/03/07 01:37:29;;;;;;;22.02;13.30;;;;;;;;;;8256550;28;20030;-62
2023/03/07 01:41:31;;;;;;;22.40;13.50;;;;;;;;;;8257078;28;20018;-62
2023/03/07 01:45:34;;;;;;;17.25;11.35;;;;;;;;;;8257747;28;20041;-62
2023/03/07 01:49:37;;;;;;;19.50;12.95;;;;;;;;;;8254706;28;20025;-62
2023/03/07 01:53:37;;;;;;;18.45;11.55;;;;;;;;;;8254921;28;20033;-62
2023/03/07 01:57:38;;;;;;;20.80;12.43;;;;;;;;;;8258753;28;20041;-62
2023/03/07 02:01:39;;;;;;;17.92;11.98;;;;;;;;;;8256327;28;20048;-62
2023/03/07 02:05:41;;;;;;;17.80;12.55;;;;;;;;;;8256376;28;20104;-62
2023/03/07 02:09:43;;;;;;;19.85;12.43;;;;;;;;;;8257242;28;20021;-62
2023/03/07 02:13:43;;;;;;;16.52;11.57;;;;;;;;;;8257723;28;20044;-62
2023/03/07 02:17:43;;;;;;;15.75;10.70;;;;;;;;;;8255329;28;20499;-63
2023/03/07 02:22:10;;;;;;;14.50;10.25;;;;;;;;;;8253221;28;20025;-61
2023/03/07 02:26:15;;;;;;;15.88;10.65;;;;;;;;;;8245276;28;20379;-62
2023/03/07 02:30:15;;;;;;;12.85;9.52;;;;;;;;;;8247599;28;20490;-62
2023/03/07 02:34:20;;;;;;;15.48;9.82;;;;;;;;;;8243414;28;20481;-62
2023/03/07 02:38:21;;;;;;;17.73;10.75;;;;;;;;;;8248746;28;20134;-62
2023/03/07 02:42:24;;;;;;;16.80;10.73;;;;;;;;;;8249902;28;20022;-62
2023/03/07 02:46:24;;;;;;;17.00;11.90;;;;;;;;;;8245254;28;20740;-62
2023/03/07 02:50:24;;;;;;;16.00;11.30;;;;;;;;;;8243057;28;20018;-62
2023/03/07 02:54:25;;;;;;;19.02;12.20;;;;;;;;;;8243589;28;20041;-62
2023/03/07 02:58:25;;;;;;;19.38;13.18;;;;;;;;;;8245812;28;20041;-62
2023/03/07 03:02:25;;;;;;;18.88;12.07;;;;;;;;;;8243160;28;20038;-62
2023/03/07 03:06:25;;;;;;;19.70;13.30;;;;;;;;;;8243905;28;20032;-62
2023/03/07 03:10:26;;;;;;;22.50;15.07;;;;;;;;;;8245551;28;20573;-62
2023/03/07 03:14:26;;;;;;;24.67;14.80;;;;;;;;;;8245747;28;20529;-62
2023/03/07 03:18:27;;;;;;;22.75;13.68;;;;;;;;;;8245176;28;20038;-62
2023/03/07 03:22:27;;;;;;;25.23;14.85;;;;;;;;;;8245468;28;20069;-62
2023/03/07 03:26:27;;;;;;;23.77;13.98;;;;;;;;;;8244989;28;20029;-62
2023/03/07 03:30:31;;;;;;;21.83;14.18;;;;;;;;;;8242925;28;20331;-62
2023/03/07 03:34:31;;;;;;;25.92;15.82;;;;;;;;;;8245896;28;20030;-62
2023/03/07 03:38:32;;;;;;;24.20;15.98;;;;;;;;;;8245789;28;20445;-61
2023/03/07 03:42:32;;;;;;;23.15;14.02;;;;;;;;;;8245714;28;20486;-62
2023/03/07 03:46:32;;;;;;;24.67;14.57;;;;;;;;;;8245867;28;20075;-62
2023/03/07 03:50:32;;;;;;;26.02;15.35;;;;;;;;;;8245873;28;20120;-62
2023/03/07 03:54:33;;;;;;;23.45;13.68;;;;;;;;;;8244953;28;20029;-61
2023/03/07 03:58:34;;;;;;;24.13;15.35;;;;;;;;;;8244258;28;20087;-62
2023/03/07 04:02:34;;;;;;;24.13;14.63;;;;;;;;;;8243992;28;20539;-62
2023/03/07 04:06:34;;;;;;;21.52;14.63;;;;;;;;;;8245844;28;20470;-62
2023/03/07 04:10:34;;;;;;;26.42;14.85;;;;;;;;;;8246059;28;20038;-62
2023/03/07 04:14:34;;;;;;;22.52;13.98;;;;;;;;;;8248820;28;20495;-62
2023/03/07 04:18:35;;;;;;;20.75;13.80;;;;;;;;;;8251488;28;20096;-62
2023/03/07 04:22:35;;;;;;;23.63;14.40;;;;;;;;;;8247976;28;20349;-62
2023/03/07 04:26:35;;;;;;;23.88;14.00;;;;;;;;;;8246596;28;20026;-62
2023/03/07 04:30:35;;;;;;;24.30;14.27;;;;;;;;;;8249281;28;20065;-62
2023/03/07 04:34:35;;;;;;;20.73;13.68;;;;;;;;;;8250171;28;20297;-62
2023/03/07 04:38:37;;;;;;;25.15;14.55;;;;;;;;;;8249783;28;20458;-62
2023/03/07 04:42:38;;;;;;;24.73;14.60;;;;;;;;;;8251030;28;20034;-62
2023/03/07 04:46:38;;;;;;;23.05;15.55;;;;;;;;;;8251597;28;20123;-62
2023/03/07 04:50:38;;;;;;;23.17;14.05;;;;;;;;;;8251729;28;20072;-62
2023/03/07 04:54:39;;;;;;;23.05;14.82;;;;;;;;;;8250835;28;20084;-62
2023/03/07 04:58:39;;;;;;;22.70;14.75;;;;;;;;;;8246583;28;20029;-63
2023/03/07 05:02:40;;;;;;;22.23;13.77;;;;;;;;;;8251045;28;20063;-62
2023/03/07 05:06:40;;;;;;;22.77;13.65;;;;;;;;;;8249758;28;21247;-62
2023/03/07 05:10:40;;;;;;;22.60;13.98;;;;;;;;;;8250468;28;20419;-62
2023/03/07 05:14:41;;;;;;;24.65;14.00;;;;;;;;;;8249283;28;20112;-62
2023/03/07 05:18:41;;;;;;;20.25;13.07;;;;;;;;;;8248790;28;20036;-62
2023/03/07 05:22:41;;;;;;;20.35;14.10;;;;;;;;;;8249340;28;20022;-62
2023/03/07 05:26:41;;;;;;;19.52;13.15;;;;;;;;;;8247648;28;20431;-62
2023/03/07 05:30:42;;;;;;;18.40;12.77;;;;;;;;;;8249398;28;20148;-62
2023/03/07 05:34:44;;;;;;;24.85;14.13;;;;;;;;;;8246758;28;20477;-62
2023/03/07 05:38:44;;;;;;;22.60;14.27;;;;;;;;;;8247858;28;20698;-62
2023/03/07 05:42:44;;;;;;;19.88;12.15;;;;;;;;;;8250239;28;20037;-62
2023/03/07 05:46:44;;;;;;;25.63;14.43;;;;;;;;;;8249065;28;20493;-62
2023/03/07 05:50:44;;;;;;;20.13;12.93;;;;;;;;;;8245107;28;20024;-62
2023/03/07 05:54:44;;;;;;;19.05;13.57;;;;;;;;;;8247333;28;20345;-61
2023/03/07 05:58:45;;;;;;;21.10;13.68;;;;;;;;;;8249741;28;20486;-62
2023/03/07 06:02:45;;;;;;;19.17;12.38;;;;;;;;;;8246196;28;20041;-62
2023/03/07 06:06:45;;;;;;;20.23;12.60;;;;;;;;;;8247512;28;20340;-62
2023/03/07 06:10:49;;;;;;;18.83;12.60;;;;;;;;;;8245526;28;20034;-62
2023/03/07 06:14:49;;;;;;;20.80;12.18;;;;;;;;;;8249228;28;20037;-62
2023/03/07 06:18:49;;;;;;;19.35;12.30;;;;;;;;;;8245739;28;20041;-62
2023/03/07 06:22:49;;;;;;;16.52;10.80;;;;;;;;;;8244957;28;20028;-62
2023/03/07 06:26:49;;;;;;;17.17;11.02;;;;;;;;;;8245183;28;20119;-62
2023/03/07 06:30:50;;;;;;;18.33;11.60;;;;;;;;;;8246194;28;20050;-62
2023/03/07 06:34:50;;;;;;;16.58;10.35;;;;;;;;;;8244450;28;20221;-62
2023/03/07 06:38:50;;;;;;;19.92;10.50;;;;;;;;;;8240557;28;20460;-62
2023/03/07 06:42:51;;;;;;;19.90;10.95;;;;;;;;;;8247226;28;20407;-62
2023/03/07 06:46:51;;;;;;;19.45;11.05;;;;;;;;;;8243095;28;20033;-62
2023/03/07 06:50:51;;;;;;;18.65;11.25;;;;;;;;;;8245521;28;20466;-62
2023/03/07 06:54:51;;;;;;;16.27;11.65;;;;;;;;;;8249056;28;20768;-62
2023/03/07 06:58:51;;;;;;;16.85;11.00;;;;;;;;;;8243534;28;20028;-62
2023/03/07 07:02:51;;;;;;;16.95;10.43;;;;;;;;;;8247045;28;20037;-62
2023/03/07 07:06:52;;;;;;;16.30;10.25;;;;;;;;;;8244664;28;20026;-62
2023/03/07 07:10:52;;;;;;;16.38;10.27;;;;;;;;;;8245140;28;20591;-62
2023/03/07 07:14:52;;;;;;;16.20;9.70;;;;;;;;;;8255134;28;20976;-62
2023/03/07 07:18:52;;;;;;;14.23;8.68;;;;;;;;;;8254838;28;20037;-62
2023/03/07 07:22:52;;;;;;;15.02;9.93;;;;;;;;;;8254062;28;20151;-62
2023/03/07 07:26:54;;;;;;;15.57;9.35;;;;;;;;;;8254921;28;20095;-62
2023/03/07 07:30:54;;;;;;;16.00;9.23;;;;;;;;;;8260203;28;20038;-62
2023/03/07 07:34:54;;;;;;;14.10;9.07;;;;;;;;;;8256900;28;20108;-63
2023/03/07 07:38:55;;;;;;;12.48;8.60;;;;;;;;;;8255158;28;20033;-63
2023/03/07 07:42:55;;;;;;;13.50;8.30;;;;;;;;;;8256007;28;20061;-62
2023/03/07 07:46:55;;;;;;;15.25;9.30;;;;;;;;;;8254612;28;20060;-62
2023/03/07 07:50:59;;;;;;;15.93;8.85;;;;;;;;;;8262533;28;20033;-63
2023/03/07 07:54:59;;;;;;;16.60;9.33;;;;;;;;;;8263542;28;20095;-62
2023/03/07 07:58:59;;;;;;;17.33;8.35;;;;;;;;;;8261360;28;20026;-62
2023/03/07 08:02:59;;;;;;;13.33;7.77;;;;;;;;;;8261938;28;20962;-62
2023/03/07 08:07:00;;;;;;;12.23;8.73;;;;;;;;;;8261111;28;20279;-62
2023/03/07 08:11:00;;;;;;;13.88;8.10;;;;;;;;;;8258431;28;20044;-62
2023/03/07 08:15:00;;;;;;;15.88;8.00;;;;;;;;;;8264074;28;20777;-62
2023/03/07 08:19:00;;;;;;;17.05;8.15;;;;;;;;;;8262009;28;20034;-62
2023/03/07 08:23:00;;;;;;;11.77;8.73;;;;;;;;;;8260697;28;20841;-62
2023/03/07 08:27:01;;;;;;;13.65;8.05;;;;;;;;;;8261026;28;20108;-62
2023/03/07 08:31:07;;;;;;;11.43;7.77;;;;;;;;;;8258152;28;20050;-63
2023/03/07 08:35:08;;;;;;;14.35;8.75;;;;;;;;;;8262039;28;21084;-62
2023/03/07 08:39:08;;;;;;;14.13;8.32;;;;;;;;;;8257222;28;20030;-63
2023/03/07 08:43:08;;;;;;;10.35;7.63;;;;;;;;;;8261262;28;20148;-62
2023/03/07 08:47:10;;;;;;;12.63;7.90;;;;;;;;;;8258587;28;20738;-63
2023/03/07 08:51:11;;;;;;;14.10;7.65;;;;;;;;;;8261941;28;20026;-63
2023/03/07 08:55:11;;;;;;;10.10;7.55;;;;;;;;;;8262457;28;20037;-63
2023/03/07 08:59:12;;;;;;;12.73;7.93;;;;;;;;;;8259860;28;20026;-62
2023/03/07 09:03:12;;;;;;;10.57;7.47;;;;;;;;;;8261325;28;20128;-62
2023/03/07 09:07:12;;;;;;;13.07;7.00;;;;;;;;;;8261123;28;20026;-62
2023/03/07 09:11:12;;;;;;;11.55;7.07;;;;;;;;;;8258626;28;20028;-62
2023/03/07 09:15:13;;;;;;;11.27;6.85;;;;;;;;;;8259454;28;20033;-63
2023/03/07 09:19:14;;;;;;;9.82;6.40;;;;;;;;;;8257879;28;20704;-63
2023/03/07 09:23:14;;;;;;;9.25;6.28;;;;;;;;;;8249364;28;20502;-63
2023/03/07 09:27:14;;;;;;;14.38;7.03;;;;;;;;;;8259681;28;20021;-62
2023/03/07 09:31:15;;;;;;;9.73;6.47;;;;;;;;;;8259879;28;20029;-63
2023/03/07 09:35:15;;;;;;;19.67;7.70;;;;;;;;;;8260550;28;20031;-62
2023/03/07 09:39:15;;;;;;;11.07;6.47;;;;;;;;;;8257139;28;20311;-62
2023/03/07 09:43:18;;;;;;;13.05;6.28;;;;;;;;;;8258873;28;20040;-62
2023/03/07 09:47:34;;;;;;;10.07;5.93;;;;;;;;;;8256177;28;20706;-63
2023/03/07 09:51:38;;;;;;;12.90;6.38;;;;;;;;;;8259471;28;20129;-63
2023/03/07 09:55:39;;;;;;;10.90;6.18;;;;;;;;;;8257673;28;20124;-62
2023/03/07 09:59:44;;;;;;;9.50;6.40;;;;;;;;;;8255262;28;20850;-62
2023/03/07 10:03:50;;;;;;;12.15;6.60;;;;;;;;;;8259109;28;20033;-62
2023/03/07 10:07:51;;;;;;;11.77;6.93;;;;;;;;;;8259867;28;20040;-62
2023/03/07 10:12:02;;;;;;;7.88;5.43;;;;;;;;;;8258134;28;20064;-62
2023/03/07 10:16:13;;;;;;;11.50;5.82;;;;;;;;;;8256266;28;20045;-62
2023/03/07 10:20:21;;;;;;;9.30;6.25;;;;;;;;;;8255942;28;20025;-62
2023/03/07 10:24:27;;;;;;;8.23;5.97;;;;;;;;;;8256718;28;20036;-63
2023/03/07 10:28:30;;;;;;;12.18;6.05;;;;;;;;;;8257287;28;20215;-62
2023/03/07 10:32:38;;;;;;;10.15;6.78;;;;;;;;;;8258730;28;21051;-62
2023/03/07 10:36:42;;;;;;;8.77;6.45;;;;;;;;;;8256324;28;20067;-63
2023/03/07 10:40:47;;;;;;;8.48;6.18;;;;;;;;;;8257458;28;20037;-63
2023/03/07 10:44:48;;;;;;;11.85;6.65;;;;;;;;;;8255135;28;20025;-62
2023/03/07 10:49:12;;;;;;;11.10;6.38;;;;;;;;;;8254014;28;20870;-63
2023/03/07 10:53:21;;;;;;;12.80;6.13;;;;;;;;;;8249904;28;20053;-62
2023/03/07 10:57:26;;;;;;;11.18;6.40;;;;;;;;;;8256089;28;20498;-62
2023/03/07 11:01:26;;;;;;;9.30;6.40;;;;;;;;;;8255994;28;20026;-62
2023/03/07 11:05:27;;;;;;;12.45;7.20;;;;;;;;;;8257044;28;20033;-63
2023/03/07 11:09:31;;;;;;;10.40;5.80;;;;;;;;;;8254969;28;20058;-63
2023/03/07 11:13:31;;;;;;;;;;;;;;;;;;8253720;28;20284;-62
2023/03/07 11:17:40;;;;;;;12.18;6.70;;;;;;;;;;8253468;28;19921;-63
2023/03/07 11:21:50;;;;;;;13.63;6.75;;;;;;;;;;8256217;28;20802;-62
2023/03/07 11:25:52;;;;;;;17.35;6.65;;;;;;;;;;8260385;28;20140;-63
2023/03/07 11:30:11;;;;;;;8.52;6.43;;;;;;;;;;8261821;28;20037;-63
2023/03/07 11:34:11;;;;;;;9.07;6.90;;;;;;;;;;8262668;28;20034;-63
2023/03/07 11:38:29;;;;;;;16.20;7.03;;;;;;;;;;8264497;28;20037;-63
2023/03/07 11:42:33;;;;;;;13.05;6.53;;;;;;;;;;8264267;28;20034;-63
2023/03/07 11:46:52;;;;;;;9.15;6.07;;;;;;;;;;8262166;28;20025;-63
2023/03/07 11:50:54;;;;;;;12.52;6.80;;;;;;;;;;8262400;28;20029;-63
2023/03/07 11:54:57;;;;;;;11.80;6.88;;;;;;;;;;8265460;28;20037;-63
2023/03/07 11:59:03;;;;;;;8.88;6.95;;;;;;;;;;8262490;28;20104;-63
2023/03/07 12:03:18;;;;;;;9.50;6.90;;;;;;;;;;8260791;28;20037;-63
2023/03/07 12:07:18;;;;;;;13.30;7.05;;;;;;;;;;8264053;28;20030;-63
2023/03/07 12:11:23;;;;;;;11.23;7.15;;;;;;;;;;8263610;28;20068;-63
2023/03/07 12:15:29;;;;;;;11.85;6.70;;;;;;;;;;8258681;28;20035;-63
2023/03/07 12:19:35;;;;;;;11.57;6.95;;;;;;;;;;8262954;28;20026;-63
2023/03/07 12:23:51;;;;;;;13.90;7.70;;;;;;;;;;8261454;28;20812;-63
2023/03/07 12:27:56;;;;;;;13.68;8.00;;;;;;;;;;8261880;28;20600;-63
2023/03/07 12:31:59;;;;;;;12.57;8.10;;;;;;;;;;8264182;28;20436;-63
2023/03/07 12:36:05;;;;;;;13.00;8.38;;;;;;;;;;8262484;28;20610;-63
2023/03/07 12:40:19;;;;;;;15.80;8.60;;;;;;;;;;8264703;28;20026;-63
2023/03/07 12:44:28;;;;;;;12.02;7.85;;;;;;;;;;8262599;28;20091;-63
2023/03/07 12:48:31;;;;;;;12.20;7.85;;;;;;;;;;8261324;28;20064;-63
2023/03/07 12:52:43;;;;;;;13.25;7.55;;;;;;;;;;8263230;28;20021;-63
2023/03/07 12:56:48;;;;;;;11.15;8.15;;;;;;;;;;8262553;28;20064;-63
2023/03/07 13:00:50;;;;;;;14.02;8.18;;;;;;;;;;8261380;28;20037;-63
2023/03/07 13:04:50;;;;;;;12.25;7.97;;;;;;;;;;8263077;28;20032;-63
2023/03/07 13:08:53;;;;;;;11.52;7.40;;;;;;;;;;8258605;28;20030;-62
2023/03/07 13:12:53;;;;;;;12.90;8.23;;;;;;;;;;8258177;28;20737;-62
2023/03/07 13:16:53;;;;;;;11.95;7.75;;;;;;;;;;8260592;28;20136;-63
2023/03/07 13:21:08;;;;;;;10.07;7.50;;;;;;;;;;8258537;28;20041;-63
2023/03/07 13:25:08;;;;;;;;;;;;;;;;;;8257758;28;20032;-63
2023/03/07 13:29:08;;;;;;;12.02;7.65;;;;;;;;;;8260076;28;19961;-63
2023/03/07 13:33:25;;;;;;;11.77;7.50;;;;;;;;;;8249348;28;20490;-63
2023/03/07 13:37:43;;;;;;;12.55;8.18;;;;;;;;;;8246721;28;20833;-62
2023/03/07 13:41:47;;;;;;;10.82;7.32;;;;;;;;;;8260869;28;20018;-62
2023/03/07 13:45:48;;;;;;;;;;;;;;;;;;8256050;28;20910;-63
2023/03/07 13:49:48;;;;;;;10.35;7.28;;;;;;;;;;8257109;28;20970;-63
2023/03/07 13:53:49;;;;;;;19.23;7.85;;;;;;;;;;8256296;28;20029;-63
2023/03/07 13:57:49;;;;;;;10.60;7.57;;;;;;;;;;8257863;28;20118;-62
2023/03/07 14:02:03;;;;;;;15.38;7.40;;;;;;;;;;8254105;28;20060;-62
2023/03/07 14:06:14;;;;;;;9.70;7.17;;;;;;;;;;8251906;28;20030;-62
2023/03/07 14:10:17;;;;;;;9.50;7.07;;;;;;;;;;8254928;28;20053;-63
2023/03/07 14:14:35;;;;;;;8.98;6.60;;;;;;;;;;8255642;28;20039;-62
2023/03/07 14:18:56;;;;;;;10.38;6.95;;;;;;;;;;8269785;28;20096;-62
2023/03/07 14:23:16;;;;;;;9.40;7.07;;;;;;;;;;8258028;28;20033;-62
2023/03/07 14:27:17;;;;;;;9.00;6.80;;;;;;;;;;8256427;28;20141;-63
2023/03/07 14:31:24;;;;;;;9.70;6.70;;;;;;;;;;8255429;28;20093;-63
2023/03/07 14:35:36;;;;;;;8.90;6.57;;;;;;;;;;8255161;28;20116;-63
2023/03/07 14:39:44;;;;;;;9.40;6.53;;;;;;;;;;8255009;28;20025;-62
2023/03/07 14:43:51;;;;;;;9.07;6.55;;;;;;;;;;8270930;28;20034;-63
2023/03/07 14:47:57;;;;;;;8.15;6.72;;;;;;;;;;8251716;28;20037;-63
2023/03/07 14:51:57;;;;;;;10.43;6.88;;;;;;;;;;8258055;28;20040;-62
2023/03/07 14:55:59;;;;;;;12.88;7.80;;;;;;;;;;8256606;28;20605;-62
2023/03/07 15:00:03;;;;;;;9.77;7.03;;;;;;;;;;8257254;28;20037;-62
2023/03/07 15:04:19;;;;;;;9.20;6.38;;;;;;;;;;8256827;28;20053;-62
2023/03/07 15:08:22;;;;;;;10.57;6.85;;;;;;;;;;8250928;28;20661;-62
2023/03/07 15:12:24;;;;;;;8.20;6.38;;;;;;;;;;8253338;28;20117;-62
2023/03/07 15:16:29;;;;;;;10.20;6.88;;;;;;;;;;8249966;28;20049;-63
2023/03/07 15:20:29;;;;;;;10.73;7.32;;;;;;;;;;8254117;28;20112;-63
2023/03/07 15:24:31;;;;;;;11.48;8.10;;;;;;;;;;8255584;28;20924;-63
2023/03/07 15:28:33;;;;;;;11.07;7.18;;;;;;;;;;8251125;28;20058;-62
2023/03/07 15:32:35;;;;;;;11.98;7.93;;;;;;;;;;8254768;28;20037;-62
2023/03/07 15:36:36;;;;;;;10.45;7.47;;;;;;;;;;8257312;28;20022;-62
2023/03/07 15:40:36;;;;;;;10.70;6.97;;;;;;;;;;8254597;28;20030;-62
2023/03/07 15:44:36;;;;;;;12.30;7.90;;;;;;;;;;8257106;28;20539;-62
2023/03/07 15:48:46;;;;;;;9.68;7.07;;;;;;;;;;8254826;28;20041;-62
2023/03/07 15:52:50;;;;;;;10.10;6.90;;;;;;;;;;8253474;28;20064;-63
2023/03/07 15:56:54;;;;;;;9.93;7.10;;;;;;;;;;8254987;28;20035;-62
2023/03/07 16:01:05;;;;;;;10.75;6.88;;;;;;;;;;8253709;28;20556;-62
2023/03/07 16:05:25;;;;;;;11.02;6.43;;;;;;;;;;8253487;28;20104;-63
2023/03/07 16:09:26;;;;;;;10.73;6.75;;;;;;;;;;8253264;28;20053;-63
2023/03/07 16:13:30;;;;;;;10.43;7.25;;;;;;;;;;8261307;28;20026;-62
2023/03/07 16:17:35;;;;;;;16.20;6.55;;;;;;;;;;8257746;28;20830;-62
2023/03/07 16:21:36;;;;;;;10.63;7.00;;;;;;;;;;8255800;28;20025;-62
2023/03/07 16:25:36;;;;;;;9.52;6.68;;;;;;;;;;8256300;28;20037;-62
2023/03/07 16:29:36;;;;;;;9.85;7.30;;;;;;;;;;8258022;28;20044;-62
2023/03/07 16:33:36;;;;;;;12.23;6.82;;;;;;;;;;8257321;28;20038;-63
2023/03/07 16:37:36;;;;;;;11.07;6.72;;;;;;;;;;8257801;28;20025;-62
2023/03/07 16:41:38;;;;;;;9.85;6.57;;;;;;;;;;8257059;28;20702;-62
2023/03/07 16:45:38;;;;;;;10.80;6.80;;;;;;;;;;8258851;28;20273;-62
2023/03/07 16:49:38;;;;;;;15.57;7.22;;;;;;;;;;8256977;28;20058;-62
2023/03/07 16:53:38;;;;;;;10.07;6.40;;;;;;;;;;8257349;28;20246;-62
2023/03/07 16:57:40;;;;;;;9.68;6.97;;;;;;;;;;8256558;28;20260;-63
2023/03/07 17:01:42;;;;;;;10.18;6.35;;;;;;;;;;8259523;28;20058;-62
2023/03/07 17:05:42;;;;;;;9.23;6.57;;;;;;;;;;8256126;28;20037;-62
2023/03/07 17:09:43;;;;;;;9.52;6.40;;;;;;;;;;8254447;28;20022;-62
2023/03/07 17:13:44;;;;;;;10.60;6.43;;;;;;;;;;8261089;28;20133;-62
2023/03/07 17:17:44;;;;;;;12.30;6.20;;;;;;;;;;8254313;28;20034;-62
2023/03/07 17:21:45;;;;;;;10.48;6.03;;;;;;;;;;8253843;28;20125;-62
2023/03/07 17:25:45;;;;;;;10.10;6.20;;;;;;;;;;8260508;28;20022;-62
2023/03/07 17:29:48;;;;;;;10.48;5.65;;;;;;;;;;8255457;28;20030;-62
2023/03/07 17:33:48;;;;;;;8.03;5.47;;;;;;;;;;8257884;28;20037;-63
2023/03/07 17:37:50;;;;;;;8.95;5.70;;;;;;;;;;8255843;28;20722;-62
2023/03/07 17:41:50;;;;;;;8.15;5.32;;;;;;;;;;8255453;28;20037;-62
2023/03/07 17:45:50;;;;;;;18.90;6.38;;;;;;;;;;8255818;28;20049;-62
2023/03/07 17:49:50;;;;;;;9.52;6.18;;;;;;;;;;8255322;28;20427;-62
2023/03/07 17:53:50;;;;;;;9.88;5.95;;;;;;;;;;8256797;28;20023;-62
2023/03/07 17:57:51;;;;;;;9.65;5.72;;;;;;;;;;8260842;28;20033;-63
2023/03/07 18:01:51;;;;;;;9.70;6.32;;;;;;;;;;8255382;28;20412;-62
2023/03/07 18:05:51;;;;;;;12.85;7.55;;;;;;;;;;8253751;28;20024;-62
2023/03/07 18:09:51;;;;;;;7.97;6.20;;;;;;;;;;8255496;28;20644;-62
2023/03/07 18:13:51;;;;;;;8.52;5.43;;;;;;;;;;8253225;28;20276;-62
2023/03/07 18:17:52;;;;;;;11.63;7.07;;;;;;;;;;8241979;28;20149;-62
2023/03/07 18:21:52;;;;;;;9.90;6.70;;;;;;;;;;8244921;28;20017;-62
2023/03/07 18:25:59;;;;;;;8.57;6.03;;;;;;;;;;8249852;28;20361;-62
2023/03/07 18:30:00;;;;;;;11.30;6.53;;;;;;;;;;8248872;28;20041;-62
2023/03/07 18:34:01;;;;;;;12.13;6.28;;;;;;;;;;8250488;28;20053;-62
2023/03/07 18:38:03;;;;;;;7.55;5.85;;;;;;;;;;8254167;28;20035;-62
2023/03/07 18:42:03;;;;;;;9.90;6.40;;;;;;;;;;8253883;28;20022;-62
2023/03/07 18:46:07;;;;;;;8.90;5.95;;;;;;;;;;8244205;28;20191;-62
2023/03/07 18:50:09;;;;;;;10.27;6.10;;;;;;;;;;8218657;28;20021;-62
2023/03/07 18:54:10;;;;;;;9.20;5.97;;;;;;;;;;8219280;28;20096;-62
2023/03/07 18:58:10;;;;;;;10.80;6.32;;;;;;;;;;8217840;28;20753;-62
2023/03/07 19:02:10;;;;;;;9.70;5.93;;;;;;;;;;8216043;28;20034;-62
2023/03/07 19:06:11;;;;;;;9.50;6.55;;;;;;;;;;8216115;28;20058;-61
2023/03/07 19:10:11;;;;;;;9.50;6.28;;;;;;;;;;8220869;28;20034;-62
2023/03/07 19:14:12;;;;;;;11.93;6.72;;;;;;;;;;8220473;28;20592;-62
2023/03/07 19:18:12;;;;;;;10.77;6.63;;;;;;;;;;8211425;28;20590;-62
2023/03/07 19:22:13;;;;;;;11.63;6.97;;;;;;;;;;8215452;28;20061;-62
2023/03/07 19:26:15;;;;;;;11.52;6.85;;;;;;;;;;8215394;28;20080;-62
2023/03/07 19:30:17;;;;;;;14.18;7.05;;;;;;;;;;8215772;28;20026;-62
2023/03/07 19:34:17;;;;;;;10.68;7.28;;;;;;;;;;8216975;28;20045;-62
2023/03/07 19:38:18;;;;;;;10.55;7.18;;;;;;;;;;8214686;28;20905;-62
2023/03/07 19:42:18;;;;;;;10.60;7.05;;;;;;;;;;8215125;28;20022;-61
2023/03/07 19:46:19;;;;;;;11.98;7.65;;;;;;;;;;8219701;28;20161;-62
2023/03/07 19:50:19;;;;;;;10.50;6.90;;;;;;;;;;8226655;28;20025;-62
2023/03/07 19:54:21;;;;;;;11.88;7.47;;;;;;;;;;8219599;28;20045;-62
2023/03/07 19:58:21;;;;;;;9.63;7.30;;;;;;;;;;8220970;28;20901;-62
2023/03/07 20:02:21;;;;;;;11.68;6.88;;;;;;;;;;8221971;28;20031;-61
2023/03/07 20:06:23;;;;;;;9.85;6.78;;;;;;;;;;8219730;28;20037;-62
2023/03/07 20:10:23;;;;;;;11.20;6.88;;;;;;;;;;8224767;28;20762;-62
2023/03/07 20:14:23;;;;;;;10.68;7.13;;;;;;;;;;8222283;28;20027;-62
2023/03/07 20:18:24;;;;;;;11.70;7.75;;;;;;;;;;8219299;28;20771;-62
2023/03/07 20:22:24;;;;;;;10.77;7.35;;;;;;;;;;8216114;28;20010;-62
2023/03/07 20:26:33;;;;;;;15.13;7.65;;;;;;;;;;8218881;28;20232;-62
2023/03/07 20:30:35;;;;;;;12.75;7.70;;;;;;;;;;8220463;28;20044;-62
2023/03/07 20:34:35;;;;;;;11.48;7.15;;;;;;;;;;8220837;28;20026;-62
2023/03/07 20:38:36;;;;;;;10.20;7.30;;;;;;;;;;8222561;28;20029;-62
2023/03/07 20:42:36;;;;;;;11.27;6.82;;;;;;;;;;8227727;28;20564;-62
2023/03/07 20:46:37;;;;;;;10.60;7.05;;;;;;;;;;8225339;28;20035;-62
2023/03/07 20:50:37;;;;;;;10.13;7.03;;;;;;;;;;8220960;28;20704;-62
2023/03/07 20:54:37;;;;;;;13.43;7.45;;;;;;;;;;8222728;28;20556;-62
2023/03/07 20:58:38;;;;;;;9.88;6.70;;;;;;;;;;8219801;28;20015;-62
2023/03/07 21:02:38;;;;;;;10.07;6.82;;;;;;;;;;8220684;28;20034;-62
2023/03/07 21:06:39;;;;;;;9.82;7.10;;;;;;;;;;8224505;28;20234;-62
2023/03/07 21:10:40;;;;;;;12.07;7.40;;;;;;;;;;8222360;28;20027;-62
2023/03/07 21:14:40;;;;;;;14.05;7.20;;;;;;;;;;8220234;28;21077;-62
2023/03/07 21:18:41;;;;;;;11.10;7.25;;;;;;;;;;8213589;28;20032;-62
2023/03/07 21:22:41;;;;;;;12.02;7.43;;;;;;;;;;8209843;28;20026;-62
2023/03/07 21:26:41;;;;;;;12.85;7.60;;;;;;;;;;8207807;28;20038;-62
2023/03/07 21:30:41;;;;;;;12.52;7.05;;;;;;;;;;8209680;28;20526;-62
2023/03/07 21:34:41;;;;;;;10.13;6.75;;;;;;;;;;8210151;28;20027;-62
2023/03/07 21:38:42;;;;;;;9.65;6.97;;;;;;;;;;8209493;28;20440;-62
2023/03/07 21:42:42;;;;;;;11.35;6.80;;;;;;;;;;8211414;28;20026;-62
2023/03/07 21:46:44;;;;;;;12.07;7.28;;;;;;;;;;8214773;28;20026;-61
2023/03/07 21:50:44;;;;;;;10.02;6.68;;;;;;;;;;8224378;28;20032;-62
2023/03/07 21:54:45;;;;;;;12.45;7.28;;;;;;;;;;8223032;28;20026;-62
2023/03/07 21:58:46;;;;;;;11.20;6.72;;;;;;;;;;8222010;28;20026;-62
2023/03/07 22:02:46;;;;;;;10.82;7.00;;;;;;;;;;8215610;28;20039;-61
2023/03/07 22:06:47;;;;;;;11.27;6.53;;;;;;;;;;8217692;28;20022;-61
2023/03/07 22:10:58;;;;;;;11.10;6.63;;;;;;;;;;8215712;28;20037;-61
2023/03/07 22:14:59;;;;;;;12.25;6.97;;;;;;;;;;8219690;28;20066;-61
2023/03/07 22:18:59;;;;;;;11.45;6.78;;;;;;;;;;8216515;28;20039;-61
2023/03/07 22:22:59;;;;;;;12.18;7.22;;;;;;;;;;8214395;28;20034;-61
2023/03/07 22:26:59;;;;;;;10.73;6.90;;;;;;;;;;8220743;28;20497;-61
2023/03/07 22:31:03;;;;;;;9.27;6.40;;;;;;;;;;8220241;28;20046;-61
2023/03/07 22:35:04;;;;;;;9.93;6.30;;;;;;;;;;8223737;28;20038;-61
2023/03/07 22:39:06;;;;;;;13.73;6.75;;;;;;;;;;8215886;28;20099;-61
2023/03/07 22:43:06;;;;;;;11.82;7.05;;;;;;;;;;8222562;28;20026;-61
2023/03/07 22:47:06;;;;;;;10.77;6.75;;;;;;;;;;8220661;28;20506;-61
2023/03/07 22:51:13;;;;;;;9.70;6.60;;;;;;;;;;8220047;28;20120;-61
2023/03/07 22:55:14;;;;;;;9.45;6.20;;;;;;;;;;8223740;28;20741;-61
2023/03/07 22:59:14;;;;;;;8.90;6.10;;;;;;;;;;8222745;28;20036;-61
2023/03/07 23:03:14;;;;;;;9.55;6.00;;;;;;;;;;8219881;28;20400;-62
2023/03/07 23:07:15;;;;;;;11.00;6.50;;;;;;;;;;8219024;28;20034;-61
2023/03/07 23:11:16;;;;;;;11.50;6.65;;;;;;;;;;8216382;28;20090;-61
2023/03/07 23:15:19;;;;;;;10.38;6.55;;;;;;;;;;8222321;28;20031;-61
2023/03/07 23:19:19;;;;;;;9.50;6.20;;;;;;;;;;8219161;28;20153;-62
2023/03/07 23:23:20;;;;;;;9.77;6.50;;;;;;;;;;8225089;28;20058;-61
2023/03/07 23:27:20;;;;;;;10.20;6.55;;;;;;;;;;8219210;28;20030;-62
2023/03/07 23:31:21;;;;;;;9.43;5.88;;;;;;;;;;8220578;28;20134;-61
2023/03/07 23:35:22;;;;;;;9.73;6.30;;;;;;;;;;8220613;28;20042;-61
2023/03/07 23:39:22;;;;;;;10.82;6.80;;;;;;;;;;8215575;28;20137;-61
2023/03/07 23:43:23;;;;;;;8.90;6.38;;;;;;;;;;8223413;28;20034;-61
2023/03/07 23:47:23;;;;;;;10.68;6.68;;;;;;;;;;8219519;28;20030;-61